sensor_id;sensor_type;location;lat;lon;timestamp;temperature;humidity
71184;DHT22;58887;51.980;4.464;2023-03-31T00:01:49;12.03;78.26
71184;DHT22;58887;51.980;4.464;2023-03-31T00:04:17;12.10;78.27
71184;DHT22;58887;51.980;4.464;2023-03-31T00:06:43;12.16;78.27
71184;DHT22;58887;51.980;4.464;2023-03-31T00:09:14;12.17;78.30
71184;DHT22;58887;51.980;4.464;2023-03-31T00:11:44;12.09;79.59
71184;DHT22;58887;51.980;4.464;2023-03-31T00:14:10;11.93;80.52
71184;DHT22;58887;51.980;4.464;2023-03-31T00:16:38;11.79;81.50
71184;DHT22;58887;51.980;4.464;2023-03-31T00:19:05;11.87;81.24
71184;DHT22;58887;51.980;4.464;2023-03-31T00:21:38;11.72;81.45
71184;DHT22;58887;51.980;4.464;2023-03-31T00:24:10;11.79;81.57
71184;DHT22;58887;51.980;4.464;2023-03-31T00:26:36;11.80;81.49
71184;DHT22;58887;51.980;4.464;2023-03-31T00:29:05;11.76;81.63
71184;DHT22;58887;51.980;4.464;2023-03-31T00:31:31;11.89;81.32
71184;DHT22;58887;51.980;4.464;2023-03-31T00:33:58;12.00;80.96
71184;DHT22;58887;51.980;4.464;2023-03-31T00:36:24;11.93;81.08
71184;DHT22;58887;51.980;4.464;2023-03-31T00:38:58;11.79;81.52
71184;DHT22;58887;51.980;4.464;2023-03-31T00:41:30;11.90;81.59
71184;DHT22;58887;51.980;4.464;2023-03-31T00:44:18;11.85;81.51
71184;DHT22;58887;51.980;4.464;2023-03-31T00:49:47;12.01;81.58
71184;DHT22;58887;51.980;4.464;2023-03-31T00:52:16;12.14;80.90
71184;DHT22;58887;51.980;4.464;2023-03-31T00:54:46;11.96;81.55
71184;DHT22;58887;51.980;4.464;2023-03-31T00:57:14;12.06;81.56
71184;DHT22;58887;51.980;4.464;2023-03-31T00:59:50;12.07;81.50
71184;DHT22;58887;51.980;4.464;2023-03-31T01:02:18;12.06;81.56
71184;DHT22;58887;51.980;4.464;2023-03-31T01:04:51;12.19;81.26
71184;DHT22;58887;51.980;4.464;2023-03-31T01:07:43;12.20;81.44
71184;DHT22;58887;51.980;4.464;2023-03-31T01:10:11;12.23;81.63
71184;DHT22;58887;51.980;4.464;2023-03-31T01:12:40;12.17;82.10
71184;DHT22;58887;51.980;4.464;2023-03-31T01:15:07;12.07;82.49
71184;DHT22;58887;51.980;4.464;2023-03-31T01:17:35;12.06;82.98
71184;DHT22;58887;51.980;4.464;2023-03-31T01:25:59;11.94;83.89
71184;DHT22;58887;51.980;4.464;2023-03-31T01:28:34;11.96;83.92
71184;DHT22;58887;51.980;4.464;2023-03-31T01:42:50;11.89;84.92
71184;DHT22;58887;51.980;4.464;2023-03-31T01:50:54;11.83;85.27
71184;DHT22;58887;51.980;4.464;2023-03-31T01:58:55;11.66;86.17
71184;DHT22;58887;51.980;4.464;2023-03-31T02:01:35;11.62;86.43
71184;DHT22;58887;51.980;4.464;2023-03-31T02:04:12;11.70;86.02
71184;DHT22;58887;51.980;4.464;2023-03-31T02:06:47;11.62;86.25
71184;DHT22;58887;51.980;4.464;2023-03-31T02:09:22;11.61;86.21
71184;DHT22;58887;51.980;4.464;2023-03-31T02:11:51;11.52;86.49
71184;DHT22;58887;51.980;4.464;2023-03-31T02:14:22;11.46;86.72
71184;DHT22;58887;51.980;4.464;2023-03-31T02:16:55;11.59;86.29
71184;DHT22;58887;51.980;4.464;2023-03-31T02:19:31;11.51;86.21
71184;DHT22;58887;51.980;4.464;2023-03-31T02:21:58;11.49;86.10
71184;DHT22;58887;51.980;4.464;2023-03-31T02:24:29;11.52;86.25
71184;DHT22;58887;51.980;4.464;2023-03-31T02:27:05;11.48;86.29
71184;DHT22;58887;51.980;4.464;2023-03-31T02:29:31;11.57;85.98
71184;DHT22;58887;51.980;4.464;2023-03-31T02:34:48;11.38;86.17
71184;DHT22;58887;51.980;4.464;2023-03-31T02:37:14;11.41;86.25
71184;DHT22;58887;51.980;4.464;2023-03-31T02:39:43;11.51;86.21
71184;DHT22;58887;51.980;4.464;2023-03-31T02:42:10;11.42;86.27
71184;DHT22;58887;51.980;4.464;2023-03-31T02:44:38;11.57;85.97
71184;DHT22;58887;51.980;4.464;2023-03-31T02:47:08;11.42;86.23
71184;DHT22;58887;51.980;4.464;2023-03-31T02:49:38;11.41;85.98
71184;DHT22;58887;51.980;4.464;2023-03-31T02:55:37;11.42;86.08
71184;DHT22;58887;51.980;4.464;2023-03-31T03:01:14;11.36;85.49
71184;DHT22;58887;51.980;4.464;2023-03-31T03:04:10;11.41;85.63
71184;DHT22;58887;51.980;4.464;2023-03-31T03:06:59;11.32;85.19
71184;DHT22;58887;51.980;4.464;2023-03-31T03:12:35;11.04;86.06
71184;DHT22;58887;51.980;4.464;2023-03-31T03:15:12;10.77;87.13
71184;DHT22;58887;51.980;4.464;2023-03-31T03:17:44;10.85;86.82
71184;DHT22;58887;51.980;4.464;2023-03-31T03:20:14;10.89;86.26
71184;DHT22;58887;51.980;4.464;2023-03-31T03:22:41;10.93;86.16
71184;DHT22;58887;51.980;4.464;2023-03-31T03:25:09;10.80;86.51
71184;DHT22;58887;51.980;4.464;2023-03-31T03:27:36;10.71;86.52
71184;DHT22;58887;51.980;4.464;2023-03-31T03:30:03;10.89;86.79
71184;DHT22;58887;51.980;4.464;2023-03-31T03:32:30;10.84;86.25
71184;DHT22;58887;51.980;4.464;2023-03-31T03:34:55;10.91;86.26
71184;DHT22;58887;51.980;4.464;2023-03-31T03:37:21;10.91;86.29
71184;DHT22;58887;51.980;4.464;2023-03-31T03:39:47;10.94;86.60
71184;DHT22;58887;51.980;4.464;2023-03-31T03:42:12;11.01;86.14
71184;DHT22;58887;51.980;4.464;2023-03-31T03:44:38;11.04;86.32
71184;DHT22;58887;51.980;4.464;2023-03-31T03:47:03;10.87;86.53
71184;DHT22;58887;51.980;4.464;2023-03-31T03:49:29;11.07;86.35
71184;DHT22;58887;51.980;4.464;2023-03-31T03:51:55;11.11;85.83
71184;DHT22;58887;51.980;4.464;2023-03-31T03:54:21;11.24;85.73
71184;DHT22;58887;51.980;4.464;2023-03-31T03:56:47;11.15;86.05
71184;DHT22;58887;51.980;4.464;2023-03-31T03:59:12;11.20;86.10
71184;DHT22;58887;51.980;4.464;2023-03-31T04:01:38;11.14;86.15
71184;DHT22;58887;51.980;4.464;2023-03-31T04:04:04;11.17;86.00
71184;DHT22;58887;51.980;4.464;2023-03-31T04:06:29;11.25;86.05
71184;DHT22;58887;51.980;4.464;2023-03-31T04:08:55;11.34;85.98
71184;DHT22;58887;51.980;4.464;2023-03-31T04:11:21;11.20;86.28
71184;DHT22;58887;51.980;4.464;2023-03-31T04:13:46;11.01;87.16
71184;DHT22;58887;51.980;4.464;2023-03-31T04:16:12;11.08;87.12
71184;DHT22;58887;51.980;4.464;2023-03-31T04:18:38;10.93;87.28
71184;DHT22;58887;51.980;4.464;2023-03-31T04:21:08;10.97;87.04
71184;DHT22;58887;51.980;4.464;2023-03-31T04:23:38;10.89;87.37
71184;DHT22;58887;51.980;4.464;2023-03-31T04:26:11;10.90;87.42
71184;DHT22;58887;51.980;4.464;2023-03-31T04:28:38;10.94;87.33
71184;DHT22;58887;51.980;4.464;2023-03-31T04:31:10;11.12;87.12
71184;DHT22;58887;51.980;4.464;2023-03-31T04:33:40;11.07;86.87
71184;DHT22;58887;51.980;4.464;2023-03-31T04:36:06;11.11;86.84
71184;DHT22;58887;51.980;4.464;2023-03-31T04:38:49;11.06;87.07
71184;DHT22;58887;51.980;4.464;2023-03-31T04:41:21;11.18;86.73
71184;DHT22;58887;51.980;4.464;2023-03-31T04:43:47;11.07;86.81
71184;DHT22;58887;51.980;4.464;2023-03-31T04:46:12;10.97;86.89
71184;DHT22;58887;51.980;4.464;2023-03-31T04:48:38;11.08;87.06
71184;DHT22;58887;51.980;4.464;2023-03-31T04:51:04;11.07;87.01
71184;DHT22;58887;51.980;4.464;2023-03-31T04:53:29;11.03;87.22
71184;DHT22;58887;51.980;4.464;2023-03-31T04:55:56;10.94;87.18
71184;DHT22;58887;51.980;4.464;2023-03-31T04:58:22;11.01;87.28
71184;DHT22;58887;51.980;4.464;2023-03-31T05:00:47;11.01;87.12
71184;DHT22;58887;51.980;4.464;2023-03-31T05:03:13;11.04;86.92
71184;DHT22;58887;51.980;4.464;2023-03-31T05:05:38;11.01;86.73
71184;DHT22;58887;51.980;4.464;2023-03-31T05:08:04;11.03;86.54
71184;DHT22;58887;51.980;4.464;2023-03-31T05:10:30;11.11;86.30
71184;DHT22;58887;51.980;4.464;2023-03-31T05:12:56;11.18;86.00
71184;DHT22;58887;51.980;4.464;2023-03-31T05:15:22;11.21;85.87
71184;DHT22;58887;51.980;4.464;2023-03-31T05:17:50;11.14;85.90
71184;DHT22;58887;51.980;4.464;2023-03-31T05:20:18;11.07;86.08
71184;DHT22;58887;51.980;4.464;2023-03-31T05:22:45;11.11;85.91
71184;DHT22;58887;51.980;4.464;2023-03-31T05:25:12;11.07;85.88
71184;DHT22;58887;51.980;4.464;2023-03-31T05:27:45;11.10;85.71
71184;DHT22;58887;51.980;4.464;2023-03-31T05:30:13;11.18;85.28
71184;DHT22;58887;51.980;4.464;2023-03-31T05:32:38;11.22;85.22
71184;DHT22;58887;51.980;4.464;2023-03-31T05:35:04;11.18;84.95
71184;DHT22;58887;51.980;4.464;2023-03-31T05:37:30;11.15;84.98
71184;DHT22;58887;51.980;4.464;2023-03-31T05:39:56;11.00;85.08
71184;DHT22;58887;51.980;4.464;2023-03-31T05:42:22;11.10;85.05
71184;DHT22;58887;51.980;4.464;2023-03-31T05:44:47;11.21;84.65
71184;DHT22;58887;51.980;4.464;2023-03-31T05:47:13;11.12;84.73
71184;DHT22;58887;51.980;4.464;2023-03-31T05:49:38;11.10;84.89
71184;DHT22;58887;51.980;4.464;2023-03-31T05:52:08;11.12;84.64
71184;DHT22;58887;51.980;4.464;2023-03-31T05:54:36;11.07;84.52
71184;DHT22;58887;51.980;4.464;2023-03-31T05:57:06;10.93;85.51
71184;DHT22;58887;51.980;4.464;2023-03-31T05:59:31;11.00;85.20
71184;DHT22;58887;51.980;4.464;2023-03-31T06:01:59;11.00;85.12
71184;DHT22;58887;51.980;4.464;2023-03-31T06:04:24;11.03;84.95
71184;DHT22;58887;51.980;4.464;2023-03-31T06:06:50;11.07;84.81
71184;DHT22;58887;51.980;4.464;2023-03-31T06:09:16;10.97;85.48
71184;DHT22;58887;51.980;4.464;2023-03-31T06:11:43;10.87;86.10
71184;DHT22;58887;51.980;4.464;2023-03-31T06:14:08;10.87;86.04
71184;DHT22;58887;51.980;4.464;2023-03-31T06:16:34;10.76;86.64
71184;DHT22;58887;51.980;4.464;2023-03-31T06:19:00;10.77;86.96
71184;DHT22;58887;51.980;4.464;2023-03-31T06:21:25;10.73;87.46
71184;DHT22;58887;51.980;4.464;2023-03-31T06:23:51;10.85;86.96
71184;DHT22;58887;51.980;4.464;2023-03-31T06:26:20;10.70;87.20
71184;DHT22;58887;51.980;4.464;2023-03-31T06:28:47;10.87;86.95
71184;DHT22;58887;51.980;4.464;2023-03-31T06:31:16;10.90;86.91
71184;DHT22;58887;51.980;4.464;2023-03-31T06:33:42;10.85;87.26
71184;DHT22;58887;51.980;4.464;2023-03-31T06:36:09;10.97;86.70
71184;DHT22;58887;51.980;4.464;2023-03-31T06:38:36;10.91;86.85
71184;DHT22;58887;51.980;4.464;2023-03-31T06:41:06;10.94;86.92
71184;DHT22;58887;51.980;4.464;2023-03-31T06:43:33;11.04;86.49
71184;DHT22;58887;51.980;4.464;2023-03-31T06:45:58;11.04;86.28
71184;DHT22;58887;51.980;4.464;2023-03-31T06:48:25;11.14;86.28
71184;DHT22;58887;51.980;4.464;2023-03-31T06:50:55;11.17;86.46
71184;DHT22;58887;51.980;4.464;2023-03-31T06:53:21;11.21;86.34
71184;DHT22;58887;51.980;4.464;2023-03-31T06:55:46;11.20;86.44
71184;DHT22;58887;51.980;4.464;2023-03-31T06:58:13;11.25;86.19
71184;DHT22;58887;51.980;4.464;2023-03-31T07:00:38;11.21;86.30
71184;DHT22;58887;51.980;4.464;2023-03-31T07:03:05;11.20;86.14
71184;DHT22;58887;51.980;4.464;2023-03-31T07:05:33;11.24;85.75
71184;DHT22;58887;51.980;4.464;2023-03-31T07:08:00;11.31;85.56
71184;DHT22;58887;51.980;4.464;2023-03-31T07:10:28;11.22;85.86
71184;DHT22;58887;51.980;4.464;2023-03-31T07:12:54;11.31;85.71
71184;DHT22;58887;51.980;4.464;2023-03-31T07:15:20;11.30;86.05
71184;DHT22;58887;51.980;4.464;2023-03-31T07:17:46;11.36;85.79
71184;DHT22;58887;51.980;4.464;2023-03-31T07:20:17;11.34;85.81
71184;DHT22;58887;51.980;4.464;2023-03-31T07:22:44;11.38;86.08
71184;DHT22;58887;51.980;4.464;2023-03-31T07:25:12;11.45;85.92
71184;DHT22;58887;51.980;4.464;2023-03-31T07:27:38;11.52;85.52
71184;DHT22;58887;51.980;4.464;2023-03-31T07:30:05;11.54;85.38
71184;DHT22;58887;51.980;4.464;2023-03-31T07:32:31;11.57;85.41
71184;DHT22;58887;51.980;4.464;2023-03-31T07:34:58;11.73;85.05
71184;DHT22;58887;51.980;4.464;2023-03-31T07:37:23;11.68;84.81
71184;DHT22;58887;51.980;4.464;2023-03-31T07:40:03;11.61;85.31
71184;DHT22;58887;51.980;4.464;2023-03-31T07:42:31;11.75;85.14
71184;DHT22;58887;51.980;4.464;2023-03-31T07:44:57;11.79;84.43
71184;DHT22;58887;51.980;4.464;2023-03-31T07:47:22;11.89;84.26
71184;DHT22;58887;51.980;4.464;2023-03-31T07:49:48;11.85;84.26
71184;DHT22;58887;51.980;4.464;2023-03-31T07:52:15;11.86;85.04
71184;DHT22;58887;51.980;4.464;2023-03-31T07:54:40;11.93;84.23
71184;DHT22;58887;51.980;4.464;2023-03-31T07:57:06;11.75;84.46
71184;DHT22;58887;51.980;4.464;2023-03-31T07:59:32;11.87;84.42
71184;DHT22;58887;51.980;4.464;2023-03-31T08:01:59;11.85;84.24
71184;DHT22;58887;51.980;4.464;2023-03-31T08:04:25;11.93;84.53
71184;DHT22;58887;51.980;4.464;2023-03-31T08:06:50;12.13;83.95
71184;DHT22;58887;51.980;4.464;2023-03-31T08:09:16;12.30;83.65
71184;DHT22;58887;51.980;4.464;2023-03-31T08:11:46;12.26;83.58
71184;DHT22;58887;51.980;4.464;2023-03-31T08:14:11;12.41;83.39
71184;DHT22;58887;51.980;4.464;2023-03-31T08:16:36;12.34;83.09
71184;DHT22;58887;51.980;4.464;2023-03-31T08:19:02;12.12;83.46
71184;DHT22;58887;51.980;4.464;2023-03-31T08:21:28;12.09;83.55
71184;DHT22;58887;51.980;4.464;2023-03-31T08:23:54;12.04;83.53
71184;DHT22;58887;51.980;4.464;2023-03-31T08:26:20;12.01;83.97
71184;DHT22;58887;51.980;4.464;2023-03-31T08:28:49;11.78;84.57
71184;DHT22;58887;51.980;4.464;2023-03-31T08:31:14;11.79;84.91
71184;DHT22;58887;51.980;4.464;2023-03-31T08:33:40;11.75;84.68
71184;DHT22;58887;51.980;4.464;2023-03-31T08:36:08;11.83;84.86
71184;DHT22;58887;51.980;4.464;2023-03-31T08:38:39;12.03;84.53
71184;DHT22;58887;51.980;4.464;2023-03-31T08:44:08;12.26;83.41
71184;DHT22;58887;51.980;4.464;2023-03-31T08:46:39;12.20;83.83
71184;DHT22;58887;51.980;4.464;2023-03-31T08:49:06;12.16;83.94
71184;DHT22;58887;51.980;4.464;2023-03-31T08:51:49;12.23;83.36
71184;DHT22;58887;51.980;4.464;2023-03-31T08:54:33;12.31;83.16
71184;DHT22;58887;51.980;4.464;2023-03-31T08:57:02;12.64;83.03
71184;DHT22;58887;51.980;4.464;2023-03-31T09:12:57;12.95;80.06
71184;DHT22;58887;51.980;4.464;2023-03-31T09:15:31;12.77;79.78
71184;DHT22;58887;51.980;4.464;2023-03-31T09:18:16;12.74;80.68
71184;DHT22;58887;51.980;4.464;2023-03-31T09:20:47;12.69;80.84
71184;DHT22;58887;51.980;4.464;2023-03-31T09:23:37;12.58;81.77
71184;DHT22;58887;51.980;4.464;2023-03-31T09:26:24;12.67;81.30
71184;DHT22;58887;51.980;4.464;2023-03-31T09:28:54;12.62;80.94
71184;DHT22;58887;51.980;4.464;2023-03-31T09:31:22;12.69;80.89
71184;DHT22;58887;51.980;4.464;2023-03-31T09:33:53;12.75;81.16
71184;DHT22;58887;51.980;4.464;2023-03-31T09:36:20;12.52;81.32
71184;DHT22;58887;51.980;4.464;2023-03-31T09:38:50;12.40;81.17
71184;DHT22;58887;51.980;4.464;2023-03-31T09:41:16;12.33;81.45
71184;DHT22;58887;51.980;4.464;2023-03-31T09:43:43;12.64;80.55
71184;DHT22;58887;51.980;4.464;2023-03-31T09:46:25;12.74;79.97
71184;DHT22;58887;51.980;4.464;2023-03-31T09:49:14;12.84;80.66
71184;DHT22;58887;51.980;4.464;2023-03-31T09:51:45;12.74;80.79
71184;DHT22;58887;51.980;4.464;2023-03-31T09:54:24;12.58;81.64
71184;DHT22;58887;51.980;4.464;2023-03-31T09:56:54;12.48;81.80
71184;DHT22;58887;51.980;4.464;2023-03-31T09:59:32;12.41;81.23
71184;DHT22;58887;51.980;4.464;2023-03-31T10:04:56;12.42;81.75
71184;DHT22;58887;51.980;4.464;2023-03-31T10:07:24;12.44;81.27
71184;DHT22;58887;51.980;4.464;2023-03-31T10:09:51;12.36;81.24
71184;DHT22;58887;51.980;4.464;2023-03-31T10:12:21;12.26;81.77
71184;DHT22;58887;51.980;4.464;2023-03-31T10:14:51;12.20;82.09
71184;DHT22;58887;51.980;4.464;2023-03-31T10:17:21;12.14;82.21
71184;DHT22;58887;51.980;4.464;2023-03-31T10:24:47;12.13;81.62
71184;DHT22;58887;51.980;4.464;2023-03-31T10:27:19;12.19;81.69
71184;DHT22;58887;51.980;4.464;2023-03-31T10:29:46;12.16;81.01
71184;DHT22;58887;51.980;4.464;2023-03-31T10:32:30;12.17;81.35
71184;DHT22;58887;51.980;4.464;2023-03-31T10:35:04;12.23;82.00
71184;DHT22;58887;51.980;4.464;2023-03-31T10:37:31;12.30;81.52
71184;DHT22;58887;51.980;4.464;2023-03-31T10:40:13;12.27;82.36
71184;DHT22;58887;51.980;4.464;2023-03-31T10:45:43;12.07;82.44
71184;DHT22;58887;51.980;4.464;2023-03-31T10:48:18;12.04;82.65
71184;DHT22;58887;51.980;4.464;2023-03-31T10:50:44;12.00;83.06
71184;DHT22;58887;51.980;4.464;2023-03-31T10:53:13;12.07;83.42
71184;DHT22;58887;51.980;4.464;2023-03-31T10:56:08;12.14;82.50
71184;DHT22;58887;51.980;4.464;2023-03-31T11:10:12;12.03;82.51
71184;DHT22;58887;51.980;4.464;2023-03-31T11:27:23;11.68;84.39
71184;DHT22;58887;51.980;4.464;2023-03-31T11:32:51;11.90;83.89
71184;DHT22;58887;51.980;4.464;2023-03-31T11:41:16;12.42;83.07
71184;DHT22;58887;51.980;4.464;2023-03-31T11:43:52;12.09;81.43
71184;DHT22;58887;51.980;4.464;2023-03-31T11:46:30;12.06;81.89
71184;DHT22;58887;51.980;4.464;2023-03-31T11:52:52;12.07;83.00
71184;DHT22;58887;51.980;4.464;2023-03-31T12:01:22;12.20;82.30
71184;DHT22;58887;51.980;4.464;2023-03-31T12:03:41;11.97;83.66
71184;DHT22;58887;51.980;4.464;2023-03-31T12:06:15;12.03;83.39
71184;DHT22;58887;51.980;4.464;2023-03-31T12:16:32;11.94;84.24
71184;DHT22;58887;51.980;4.464;2023-03-31T12:21:52;11.80;84.02
71184;DHT22;58887;51.980;4.464;2023-03-31T12:24:19;11.75;84.64
71184;DHT22;58887;51.980;4.464;2023-03-31T12:27:48;11.72;84.07
71184;DHT22;58887;51.980;4.464;2023-03-31T12:29:56;11.68;84.05
71184;DHT22;58887;51.980;4.464;2023-03-31T12:32:28;11.70;84.91
71184;DHT22;58887;51.980;4.464;2023-03-31T12:35:03;11.66;85.57
71184;DHT22;58887;51.980;4.464;2023-03-31T12:38:46;11.59;85.59
71184;DHT22;58887;51.980;4.464;2023-03-31T12:46:44;11.68;84.56
71184;DHT22;58887;51.980;4.464;2023-03-31T12:59:36;11.76;85.39
71184;DHT22;58887;51.980;4.464;2023-03-31T13:04:39;11.86;84.69
71184;DHT22;58887;51.980;4.464;2023-03-31T13:09:56;12.10;84.22
71184;DHT22;58887;51.980;4.464;2023-03-31T13:12:24;12.26;84.35
71184;DHT22;58887;51.980;4.464;2023-03-31T13:14:54;12.07;84.14
71184;DHT22;58887;51.980;4.464;2023-03-31T13:17:32;11.99;84.09
71184;DHT22;58887;51.980;4.464;2023-03-31T13:23:22;12.06;83.80
71184;DHT22;58887;51.980;4.464;2023-03-31T13:25:54;12.23;83.72
71184;DHT22;58887;51.980;4.464;2023-03-31T13:30:49;12.51;82.43
71184;DHT22;58887;51.980;4.464;2023-03-31T13:33:18;12.54;82.46
71184;DHT22;58887;51.980;4.464;2023-03-31T13:35:49;12.44;82.69
71184;DHT22;58887;51.980;4.464;2023-03-31T13:52:47;12.23;84.21
71184;DHT22;58887;51.980;4.464;2023-03-31T13:58:25;12.24;83.71
71184;DHT22;58887;51.980;4.464;2023-03-31T14:01:30;12.31;82.95
71184;DHT22;58887;51.980;4.464;2023-03-31T14:07:08;12.17;82.78
71184;DHT22;58887;51.980;4.464;2023-03-31T14:09:39;12.27;82.33
71184;DHT22;58887;51.980;4.464;2023-03-31T14:12:37;12.23;81.56
71184;DHT22;58887;51.980;4.464;2023-03-31T14:15:05;12.26;82.13
71184;DHT22;58887;51.980;4.464;2023-03-31T14:17:39;12.06;82.91
71184;DHT22;58887;51.980;4.464;2023-03-31T14:20:30;11.91;83.43
71184;DHT22;58887;51.980;4.464;2023-03-31T14:26:08;11.73;83.87
71184;DHT22;58887;51.980;4.464;2023-03-31T14:31:41;11.82;84.19
71184;DHT22;58887;51.980;4.464;2023-03-31T14:37:03;11.43;84.82
71184;DHT22;58887;51.980;4.464;2023-03-31T14:39:34;11.55;85.55
71184;DHT22;58887;51.980;4.464;2023-03-31T14:42:10;11.59;84.48
71184;DHT22;58887;51.980;4.464;2023-03-31T14:44:38;11.68;84.52
71184;DHT22;58887;51.980;4.464;2023-03-31T14:47:19;11.63;84.06
71184;DHT22;58887;51.980;4.464;2023-03-31T14:49:44;11.68;84.48
71184;DHT22;58887;51.980;4.464;2023-03-31T14:52:20;11.70;83.74
71184;DHT22;58887;51.980;4.464;2023-03-31T14:54:47;11.78;83.55
71184;DHT22;58887;51.980;4.464;2023-03-31T14:57:22;11.59;84.15
71184;DHT22;58887;51.980;4.464;2023-03-31T14:59:52;11.58;84.40
71184;DHT22;58887;51.980;4.464;2023-03-31T15:02:32;11.54;85.02
71184;DHT22;58887;51.980;4.464;2023-03-31T15:05:02;11.51;85.42
71184;DHT22;58887;51.980;4.464;2023-03-31T15:07:28;11.57;85.56
71184;DHT22;58887;51.980;4.464;2023-03-31T15:09:53;11.62;85.20
71184;DHT22;58887;51.980;4.464;2023-03-31T15:12:22;11.61;85.07
71184;DHT22;58887;51.980;4.464;2023-03-31T15:14:55;11.61;85.57
71184;DHT22;58887;51.980;4.464;2023-03-31T15:17:35;11.55;85.35
71184;DHT22;58887;51.980;4.464;2023-03-31T15:22:45;11.49;85.53
71184;DHT22;58887;51.980;4.464;2023-03-31T15:25:14;11.55;85.42
71184;DHT22;58887;51.980;4.464;2023-03-31T15:27:52;11.58;85.37
71184;DHT22;58887;51.980;4.464;2023-03-31T15:30:24;11.63;85.31
71184;DHT22;58887;51.980;4.464;2023-03-31T15:32:54;11.68;85.25
71184;DHT22;58887;51.980;4.464;2023-03-31T15:35:40;11.70;85.50
71184;DHT22;58887;51.980;4.464;2023-03-31T15:38:08;11.59;86.02
71184;DHT22;58887;51.980;4.464;2023-03-31T15:40:40;11.58;85.96
71184;DHT22;58887;51.980;4.464;2023-03-31T15:48:17;11.31;86.88
71184;DHT22;58887;51.980;4.464;2023-03-31T15:50:45;11.36;86.99
71184;DHT22;58887;51.980;4.464;2023-03-31T15:53:28;11.35;87.09
71184;DHT22;58887;51.980;4.464;2023-03-31T15:55:58;11.41;87.58
71184;DHT22;58887;51.980;4.464;2023-03-31T15:58:45;11.30;87.74
71184;DHT22;58887;51.980;4.464;2023-03-31T16:01:13;11.30;87.19
71184;DHT22;58887;51.980;4.464;2023-03-31T16:03:40;11.21;87.74
71184;DHT22;58887;51.980;4.464;2023-03-31T16:06:18;11.17;87.92
71184;DHT22;58887;51.980;4.464;2023-03-31T16:08:51;11.24;87.42
71184;DHT22;58887;51.980;4.464;2023-03-31T16:11:27;11.15;87.68
71184;DHT22;58887;51.980;4.464;2023-03-31T16:14:00;11.17;87.64
71184;DHT22;58887;51.980;4.464;2023-03-31T16:16:31;11.21;87.62
71184;DHT22;58887;51.980;4.464;2023-03-31T16:19:04;11.32;87.38
71184;DHT22;58887;51.980;4.464;2023-03-31T16:21:57;11.27;87.46
71184;DHT22;58887;51.980;4.464;2023-03-31T16:24:31;11.18;87.31
71184;DHT22;58887;51.980;4.464;2023-03-31T16:27:06;11.30;87.12
71184;DHT22;58887;51.980;4.464;2023-03-31T16:29:36;11.36;87.18
71184;DHT22;58887;51.980;4.464;2023-03-31T16:32:13;11.39;87.08
71184;DHT22;58887;51.980;4.464;2023-03-31T16:34:55;11.43;86.71
71184;DHT22;58887;51.980;4.464;2023-03-31T16:37:21;11.38;86.80
71184;DHT22;58887;51.980;4.464;2023-03-31T16:39:48;11.31;86.57
71184;DHT22;58887;51.980;4.464;2023-03-31T16:42:14;11.31;86.45
71184;DHT22;58887;51.980;4.464;2023-03-31T16:44:39;11.34;86.53
71184;DHT22;58887;51.980;4.464;2023-03-31T16:47:05;11.31;86.93
71184;DHT22;58887;51.980;4.464;2023-03-31T16:49:30;11.27;87.19
71184;DHT22;58887;51.980;4.464;2023-03-31T16:51:57;11.28;87.01
71184;DHT22;58887;51.980;4.464;2023-03-31T16:54:23;11.20;87.33
71184;DHT22;58887;51.980;4.464;2023-03-31T16:56:49;11.20;87.38
71184;DHT22;58887;51.980;4.464;2023-03-31T16:59:15;11.17;87.68
71184;DHT22;58887;51.980;4.464;2023-03-31T17:01:40;11.15;87.99
71184;DHT22;58887;51.980;4.464;2023-03-31T17:04:06;11.06;88.16
71184;DHT22;58887;51.980;4.464;2023-03-31T17:06:32;11.00;88.38
71184;DHT22;58887;51.980;4.464;2023-03-31T17:08:58;10.96;88.27
71184;DHT22;58887;51.980;4.464;2023-03-31T17:11:25;10.94;87.80
71184;DHT22;58887;51.980;4.464;2023-03-31T17:13:51;10.87;88.25
71184;DHT22;58887;51.980;4.464;2023-03-31T17:16:18;10.96;88.00
71184;DHT22;58887;51.980;4.464;2023-03-31T17:18:44;10.94;87.42
71184;DHT22;58887;51.980;4.464;2023-03-31T17:21:12;10.90;87.32
71184;DHT22;58887;51.980;4.464;2023-03-31T17:23:38;10.90;87.46
71184;DHT22;58887;51.980;4.464;2023-03-31T17:26:07;10.94;87.36
71184;DHT22;58887;51.980;4.464;2023-03-31T17:28:34;10.94;87.25
71184;DHT22;58887;51.980;4.464;2023-03-31T17:31:00;10.85;87.44
71184;DHT22;58887;51.980;4.464;2023-03-31T17:33:26;11.01;87.32
71184;DHT22;58887;51.980;4.464;2023-03-31T17:35:56;10.89;87.41
71184;DHT22;58887;51.980;4.464;2023-03-31T17:38:24;10.91;87.41
71184;DHT22;58887;51.980;4.464;2023-03-31T17:40:49;10.91;87.69
71184;DHT22;58887;51.980;4.464;2023-03-31T17:43:14;10.91;87.80
71184;DHT22;58887;51.980;4.464;2023-03-31T17:45:40;10.85;87.38
71184;DHT22;58887;51.980;4.464;2023-03-31T17:48:06;10.89;87.62
71184;DHT22;58887;51.980;4.464;2023-03-31T17:50:35;10.87;87.74
71184;DHT22;58887;51.980;4.464;2023-03-31T17:53:01;10.83;87.56
71184;DHT22;58887;51.980;4.464;2023-03-31T17:55:35;10.77;87.94
71184;DHT22;58887;51.980;4.464;2023-03-31T17:58:03;10.77;87.76
71184;DHT22;58887;51.980;4.464;2023-03-31T18:00:29;10.80;88.07
71184;DHT22;58887;51.980;4.464;2023-03-31T18:02:54;10.79;87.54
71184;DHT22;58887;51.980;4.464;2023-03-31T18:05:20;10.79;87.55
71184;DHT22;58887;51.980;4.464;2023-03-31T18:07:45;10.83;87.50
71184;DHT22;58887;51.980;4.464;2023-03-31T18:10:11;10.83;87.71
71184;DHT22;58887;51.980;4.464;2023-03-31T18:12:38;10.81;87.65
71184;DHT22;58887;51.980;4.464;2023-03-31T18:15:04;10.81;87.71
71184;DHT22;58887;51.980;4.464;2023-03-31T18:17:31;10.80;87.89
71184;DHT22;58887;51.980;4.464;2023-03-31T18:19:57;10.84;87.66
71184;DHT22;58887;51.980;4.464;2023-03-31T18:22:23;10.89;87.78
71184;DHT22;58887;51.980;4.464;2023-03-31T18:24:49;10.83;87.78
71184;DHT22;58887;51.980;4.464;2023-03-31T18:27:14;10.83;88.00
71184;DHT22;58887;51.980;4.464;2023-03-31T18:29:40;10.77;88.06
71184;DHT22;58887;51.980;4.464;2023-03-31T18:32:05;10.74;87.96
71184;DHT22;58887;51.980;4.464;2023-03-31T18:34:31;10.64;88.50
71184;DHT22;58887;51.980;4.464;2023-03-31T18:36:58;10.73;88.51
71184;DHT22;58887;51.980;4.464;2023-03-31T18:39:23;10.77;88.27
71184;DHT22;58887;51.980;4.464;2023-03-31T18:41:49;10.73;88.62
71184;DHT22;58887;51.980;4.464;2023-03-31T18:44:15;10.70;88.72
71184;DHT22;58887;51.980;4.464;2023-03-31T18:46:43;10.80;88.84
71184;DHT22;58887;51.980;4.464;2023-03-31T18:49:09;10.80;88.80
71184;DHT22;58887;51.980;4.464;2023-03-31T18:51:36;10.71;88.91
71184;DHT22;58887;51.980;4.464;2023-03-31T18:54:01;10.62;89.28
71184;DHT22;58887;51.980;4.464;2023-03-31T18:56:26;10.62;89.03
71184;DHT22;58887;51.980;4.464;2023-03-31T18:58:52;10.67;89.21